Time;durP1;ratioP1;P1;durP2;ratioP2;P2;SDS_P1;SDS_P2;PMS_P1;PMS_P2;Temp;Humidity;BMP_temperature;BMP_pressure;BME280_temperature;BME280_humidity;BME280_pressure;Samples;Min_cycle;Max_cycle;Signal;HPM_P1;HPM_P2
2023/12/05 00:00:34;;;;;;;;;;;0.80;99.90;;;;;;5120723;27;19934;-79
2023/12/05 00:03:01;;;;;;;;;;;0.80;99.90;;;;;;5113592;27;19923;-80
2023/12/05 00:05:27;;;;;;;;;;;0.80;99.90;;;;;;5117768;27;19924;-79
2023/12/05 00:07:53;;;;;;;;;;;0.80;99.90;;;;;;5110595;27;19930;-80
2023/12/05 00:10:19;;;;;;;;;;;0.80;99.90;;;;;;5113897;28;19963;-80
2023/12/05 00:12:44;;;;;;;;;;;0.80;99.90;;;;;;5112178;27;19935;-82
2023/12/05 00:15:10;;;;;;;;;;;0.80;99.90;;;;;;5117995;27;19928;-80
2023/12/05 00:17:35;;;;;;;;;;;0.80;99.90;;;;;;5113938;28;20034;-80
2023/12/05 00:20:02;;;;;;;;;;;0.90;99.90;;;;;;5113458;28;19931;-80
2023/12/05 00:22:28;;;;;;;;;;;0.80;99.90;;;;;;5114947;28;19986;-80
2023/12/05 00:24:53;;;;;;;;;;;0.80;99.90;;;;;;5114988;27;20420;-79
2023/12/05 00:27:19;;;;;;;;;;;0.80;99.90;;;;;;5114807;28;20006;-80
2023/12/05 00:29:45;;;;;;;;;;;0.80;99.90;;;;;;5110595;27;19946;-83
2023/12/05 00:32:11;;;;;;;;;;;0.80;99.90;;;;;;5110575;28;20018;-79
2023/12/05 00:34:37;;;;;;;;;;;0.80;99.90;;;;;;5115480;28;20007;-80
2023/12/05 00:37:03;;;;;;;;;;;0.80;99.90;;;;;;5120044;28;19950;-78
2023/12/05 00:39:28;;;;;;;;;;;0.80;99.90;;;;;;5127086;27;19971;-80
2023/12/05 00:41:54;;;;;;;;;;;0.90;99.90;;;;;;5128665;27;19938;-81
2023/12/05 00:44:19;;;;;;;;;;;0.80;99.90;;;;;;5126019;27;19948;-80
2023/12/05 00:46:45;;;;;;;;;;;0.80;99.90;;;;;;5115214;27;19957;-80
2023/12/05 00:49:11;;;;;;;;;;;0.90;99.90;;;;;;5120992;27;19968;-80
2023/12/05 00:51:36;;;;;;;;;;;0.80;99.90;;;;;;5117871;27;20639;-82
2023/12/05 00:54:02;;;;;;;;;;;0.80;99.90;;;;;;5119390;27;19931;-83
2023/12/05 00:56:27;;;;;;;;;;;0.80;99.90;;;;;;5116599;27;20370;-80
2023/12/05 00:58:53;;;;;;;;;;;0.70;99.90;;;;;;5121200;27;19949;-80
2023/12/05 01:01:19;;;;;;;;;;;0.80;99.90;;;;;;5111514;27;20327;-82
2023/12/05 01:03:45;;;;;;;;;;;0.70;99.90;;;;;;5114719;27;20035;-84
2023/12/05 01:06:11;;;;;;;;;;;0.70;99.90;;;;;;5111865;27;20014;-79
2023/12/05 01:08:36;;;;;;;;;;;0.70;99.90;;;;;;5109162;27;19924;-79
2023/12/05 01:11:02;;;;;;;;;;;0.70;99.90;;;;;;5113037;27;19932;-79
2023/12/05 01:13:27;;;;;;;;;;;0.70;99.90;;;;;;5113030;27;20010;-80
2023/12/05 01:15:53;;;;;;;;;;;0.70;99.90;;;;;;5103127;27;20371;-81
2023/12/05 01:18:19;;;;;;;;;;;0.70;99.90;;;;;;5091503;28;19927;-80
2023/12/05 01:20:44;;;;;;;;;;;0.60;99.90;;;;;;5097084;28;19924;-81
2023/12/05 01:23:10;;;;;;;;;;;0.60;99.90;;;;;;5111628;27;19928;-79
2023/12/05 01:25:35;;;;;;;;;;;0.70;99.90;;;;;;5119032;27;19928;-79
2023/12/05 01:28:02;;;;;;;;;;;0.60;99.90;;;;;;5102863;27;20125;-79
2023/12/05 01:30:27;;;;;;;;;;;0.60;99.90;;;;;;5098733;27;19931;-81
2023/12/05 01:32:53;;;;;;;;;;;0.70;99.90;;;;;;5099822;27;20119;-81
2023/12/05 01:35:18;;;;;;;;;;;0.60;99.90;;;;;;5106787;27;20006;-80
2023/12/05 01:37:45;;;;;;;;;;;0.60;99.90;;;;;;5118377;27;19954;-79
2023/12/05 01:40:10;;;;;;;;;;;0.60;99.90;;;;;;5114836;27;19924;-81
2023/12/05 01:42:36;;;;;;;;;;;0.60;99.90;;;;;;5112741;27;20423;-79
2023/12/05 01:45:03;;;;;;;;;;;0.60;99.90;;;;;;5104627;27;19942;-79
2023/12/05 01:47:29;;;;;;;;;;;0.60;99.90;;;;;;5115248;27;19923;-79
2023/12/05 01:49:55;;;;;;;;;;;0.60;99.90;;;;;;5113508;27;19930;-79
2023/12/05 01:52:20;;;;;;;;;;;0.60;99.90;;;;;;5118302;27;19939;-80
2023/12/05 01:54:46;;;;;;;;;;;0.60;99.90;;;;;;5125034;27;19930;-80
2023/12/05 01:57:12;;;;;;;;;;;0.50;99.90;;;;;;5096720;28;19959;-80
2023/12/05 01:59:37;;;;;;;;;;;0.50;99.90;;;;;;5113744;27;19934;-79
2023/12/05 02:02:03;;;;;;;;;;;0.60;99.90;;;;;;5113178;27;19975;-81
2023/12/05 02:04:29;;;;;;;;;;;0.60;99.90;;;;;;5107978;28;19966;-80
2023/12/05 02:06:55;;;;;;;;;;;0.60;99.90;;;;;;5107656;28;19928;-80
2023/12/05 02:09:22;;;;;;;;;;;0.60;99.90;;;;;;5110364;28;19928;-79
2023/12/05 02:11:48;;;;;;;;;;;0.60;99.90;;;;;;5112189;28;20136;-80
2023/12/05 02:14:14;;;;;;;;;;;0.70;99.90;;;;;;5113150;28;19931;-81
2023/12/05 02:16:44;;;;;;;;;;;0.60;99.90;;;;;;5112850;28;19924;-81
2023/12/05 02:19:12;;;;;;;;;;;0.60;99.90;;;;;;5102032;28;20367;-80
2023/12/05 02:21:40;;;;;;;;;;;0.60;99.90;;;;;;5103956;28;19935;-80
2023/12/05 02:24:25;;;;;;;;;;;0.60;99.90;;;;;;5110854;28;19924;-80
2023/12/05 02:27:00;;;;;;;;;;;0.60;99.90;;;;;;5110017;28;19931;-84
2023/12/05 02:29:25;;;;;;;;;;;0.60;99.90;;;;;;5094722;28;19923;-80
2023/12/05 02:31:51;;;;;;;;;;;0.60;99.90;;;;;;5111087;28;19924;-80
2023/12/05 02:34:17;;;;;;;;;;;0.60;99.90;;;;;;5115239;28;19928;-80
2023/12/05 02:36:49;;;;;;;;;;;0.70;99.90;;;;;;5116841;27;19924;-79
2023/12/05 02:39:33;;;;;;;;;;;0.70;99.90;;;;;;5115709;27;20018;-79
2023/12/05 02:42:01;;;;;;;;;;;0.60;99.90;;;;;;5112673;28;20016;-80
2023/12/05 02:44:31;;;;;;;;;;;0.60;99.90;;;;;;5116479;27;20386;-80
2023/12/05 02:46:57;;;;;;;;;;;0.70;99.90;;;;;;5116890;27;19923;-81
2023/12/05 02:49:23;;;;;;;;;;;0.70;99.90;;;;;;5116155;27;19974;-80
2023/12/05 02:51:49;;;;;;;;;;;0.70;99.90;;;;;;5122048;27;19975;-86
2023/12/05 02:54:14;;;;;;;;;;;0.60;99.90;;;;;;5115782;27;20389;-80
2023/12/05 02:56:40;;;;;;;;;;;0.60;99.90;;;;;;5110140;27;19951;-80
2023/12/05 02:59:05;;;;;;;;;;;0.70;99.90;;;;;;5114507;27;19924;-80
2023/12/05 03:01:38;;;;;;;;;;;0.70;99.90;;;;;;5116146;27;20021;-80
2023/12/05 03:04:04;;;;;;;;;;;0.70;99.90;;;;;;5114914;27;20445;-81
2023/12/05 03:06:30;;;;;;;;;;;0.60;99.90;;;;;;5117537;27;19924;-80
2023/12/05 03:08:56;;;;;;;;;;;0.80;99.90;;;;;;5117765;27;20381;-80
2023/12/05 03:11:21;;;;;;;;;;;0.70;99.90;;;;;;5115109;27;20054;-81
2023/12/05 03:13:47;;;;;;;;;;;0.70;99.90;;;;;;5111849;27;19955;-80
2023/12/05 03:16:12;;;;;;;;;;;0.70;99.90;;;;;;5114092;27;19927;-80
2023/12/05 03:18:38;;;;;;;;;;;0.70;99.90;;;;;;5114726;27;19927;-81
2023/12/05 03:21:04;;;;;;;;;;;0.70;99.90;;;;;;5121859;27;20070;-84
2023/12/05 03:23:30;;;;;;;;;;;0.70;99.90;;;;;;5113035;27;19927;-81
2023/12/05 03:25:55;;;;;;;;;;;0.70;99.90;;;;;;5116807;28;19928;-80
2023/12/05 03:28:21;;;;;;;;;;;0.70;99.90;;;;;;5119320;27;19924;-81
2023/12/05 03:30:46;;;;;;;;;;;0.80;99.90;;;;;;5115861;27;19931;-80
2023/12/05 03:33:12;;;;;;;;;;;0.70;99.90;;;;;;5118782;27;19928;-82
2023/12/05 03:35:37;;;;;;;;;;;0.70;99.90;;;;;;5138644;27;19935;-81
2023/12/05 03:38:03;;;;;;;;;;;0.70;99.90;;;;;;5113258;27;19951;-80
2023/12/05 03:40:29;;;;;;;;;;;0.70;99.90;;;;;;5123714;27;20391;-80
2023/12/05 03:42:55;;;;;;;;;;;0.80;99.90;;;;;;5121198;27;19924;-80
2023/12/05 03:45:20;;;;;;;;;;;0.70;99.90;;;;;;5118506;27;19924;-83
2023/12/05 03:47:46;;;;;;;;;;;0.70;99.90;;;;;;5112524;27;20366;-79
2023/12/05 03:50:11;;;;;;;;;;;0.70;99.90;;;;;;5118501;27;19924;-80
2023/12/05 03:52:37;;;;;;;;;;;0.90;99.90;;;;;;5120643;27;19931;-81
2023/12/05 03:55:03;;;;;;;;;;;0.70;99.90;;;;;;5115343;27;20018;-80
2023/12/05 03:57:28;;;;;;;;;;;0.70;99.90;;;;;;5136848;27;19931;-79
2023/12/05 03:59:54;;;;;;;;;;;0.70;99.90;;;;;;5110471;27;19976;-83
2023/12/05 04:02:19;;;;;;;;;;;0.80;99.90;;;;;;5117214;27;19968;-83
2023/12/05 04:04:45;;;;;;;;;;;0.70;99.90;;;;;;5119383;27;19924;-79
2023/12/05 04:07:11;;;;;;;;;;;0.80;99.90;;;;;;5128104;27;19928;-85
2023/12/05 04:09:36;;;;;;;;;;;0.80;99.90;;;;;;5125609;27;20050;-80
2023/12/05 04:12:03;;;;;;;;;;;0.80;99.90;;;;;;5121774;27;19935;-80
2023/12/05 04:14:29;;;;;;;;;;;0.80;99.90;;;;;;5113619;27;19949;-80
2023/12/05 04:16:54;;;;;;;;;;;0.80;99.90;;;;;;5113463;27;20006;-80
2023/12/05 04:19:20;;;;;;;;;;;0.80;99.90;;;;;;5093375;27;19927;-81
2023/12/05 04:21:46;;;;;;;;;;;0.80;99.90;;;;;;5114513;27;20443;-80
2023/12/05 04:24:11;;;;;;;;;;;0.70;99.90;;;;;;5114887;28;19931;-80
2023/12/05 04:26:37;;;;;;;;;;;0.80;99.90;;;;;;5111419;28;20014;-82
2023/12/05 04:29:02;;;;;;;;;;;0.80;99.90;;;;;;5113588;28;19927;-81
2023/12/05 04:31:28;;;;;;;;;;;0.80;99.90;;;;;;5113879;28;19938;-82
2023/12/05 04:33:53;;;;;;;;;;;0.80;99.90;;;;;;5113399;28;20031;-80
2023/12/05 04:36:19;;;;;;;;;;;0.80;99.90;;;;;;5113452;28;19928;-81
2023/12/05 04:38:44;;;;;;;;;;;0.80;99.90;;;;;;5111626;27;19928;-80
2023/12/05 04:41:10;;;;;;;;;;;0.80;99.90;;;;;;5113782;28;20342;-80
2023/12/05 04:43:36;;;;;;;;;;;0.80;99.90;;;;;;5114111;28;19931;-80
2023/12/05 04:46:01;;;;;;;;;;;0.80;99.90;;;;;;5115182;27;19927;-80
2023/12/05 04:48:27;;;;;;;;;;;0.80;99.90;;;;;;5112745;27;19965;-82
2023/12/05 04:50:52;;;;;;;;;;;0.80;99.90;;;;;;5114453;27;20042;-80
2023/12/05 04:53:18;;;;;;;;;;;0.80;99.90;;;;;;5113428;27;20008;-81
2023/12/05 04:55:44;;;;;;;;;;;0.80;99.90;;;;;;5111867;27;19928;-81
2023/12/05 04:58:09;;;;;;;;;;;0.80;99.90;;;;;;5119893;27;19928;-82
2023/12/05 05:00:36;;;;;;;;;;;0.70;99.90;;;;;;5120247;27;19927;-80
2023/12/05 05:03:02;;;;;;;;;;;0.80;99.90;;;;;;5114596;27;19931;-86
2023/12/05 05:05:27;;;;;;;;;;;0.80;99.90;;;;;;5117869;27;20342;-80
2023/12/05 05:07:53;;;;;;;;;;;0.80;99.90;;;;;;5138741;27;20009;-81
2023/12/05 05:10:19;;;;;;;;;;;0.80;99.90;;;;;;5109824;27;20019;-80
2023/12/05 05:12:44;;;;;;;;;;;0.80;99.90;;;;;;5112903;28;20432;-80
2023/12/05 05:15:10;;;;;;;;;;;0.80;99.90;;;;;;5112621;28;19982;-80
2023/12/05 05:17:35;;;;;;;;;;;0.80;99.90;;;;;;5114167;28;20042;-80
2023/12/05 05:20:01;;;;;;;;;;;0.80;99.90;;;;;;5103660;28;19928;-81
2023/12/05 05:22:27;;;;;;;;;;;0.80;99.90;;;;;;5114186;28;19924;-80
2023/12/05 05:24:52;;;;;;;;;;;0.80;99.90;;;;;;5112156;27;19924;-79
2023/12/05 05:27:18;;;;;;;;;;;0.80;99.90;;;;;;5113597;28;20027;-80
2023/12/05 05:29:43;;;;;;;;;;;0.80;99.90;;;;;;5115596;27;19923;-82
2023/12/05 05:32:09;;;;;;;;;;;0.80;99.90;;;;;;5114098;27;19923;-80
2023/12/05 05:34:35;;;;;;;;;;;0.80;99.90;;;;;;5112127;27;20359;-82
2023/12/05 05:37:00;;;;;;;;;;;0.80;99.90;;;;;;5113036;27;19957;-82
2023/12/05 05:39:26;;;;;;;;;;;0.80;99.90;;;;;;5110153;27;19931;-82
2023/12/05 05:41:51;;;;;;;;;;;0.80;99.90;;;;;;5115824;27;20298;-80
2023/12/05 05:44:17;;;;;;;;;;;0.80;99.90;;;;;;5114759;27;19928;-80
2023/12/05 05:46:42;;;;;;;;;;;0.80;99.90;;;;;;5111737;27;20303;-81
2023/12/05 05:49:08;;;;;;;;;;;0.80;99.90;;;;;;5112018;27;19981;-84
2023/12/05 05:51:34;;;;;;;;;;;0.90;99.90;;;;;;5109897;27;19945;-80
2023/12/05 05:53:59;;;;;;;;;;;0.80;99.90;;;;;;5116539;27;19927;-80
2023/12/05 05:56:25;;;;;;;;;;;0.80;99.90;;;;;;5112513;27;20357;-79
2023/12/05 05:58:50;;;;;;;;;;;0.80;99.90;;;;;;5117495;27;19944;-81
2023/12/05 06:01:16;;;;;;;;;;;0.80;99.90;;;;;;5115605;27;20007;-82
2023/12/05 06:03:42;;;;;;;;;;;0.80;99.90;;;;;;5110964;27;19963;-81
2023/12/05 06:06:08;;;;;;;;;;;0.80;99.90;;;;;;5115105;27;20366;-82
2023/12/05 06:08:33;;;;;;;;;;;0.80;99.90;;;;;;5118399;27;19969;-80
2023/12/05 06:10:59;;;;;;;;;;;0.80;99.90;;;;;;5111636;27;19971;-81
2023/12/05 06:13:25;;;;;;;;;;;0.80;99.90;;;;;;5110775;28;19928;-84
2023/12/05 06:15:50;;;;;;;;;;;0.80;99.90;;;;;;5111789;27;19923;-81
2023/12/05 06:18:16;;;;;;;;;;;0.80;99.90;;;;;;5111720;27;20287;-81
2023/12/05 06:20:42;;;;;;;;;;;0.80;99.90;;;;;;5114515;27;19978;-81
2023/12/05 06:23:08;;;;;;;;;;;0.80;99.90;;;;;;5109384;28;20422;-81
2023/12/05 06:25:34;;;;;;;;;;;0.80;99.90;;;;;;5101182;28;19932;-81
2023/12/05 06:28:00;;;;;;;;;;;0.80;99.90;;;;;;5097729;28;19924;-83
2023/12/05 06:30:26;;;;;;;;;;;0.80;99.90;;;;;;5092535;28;19932;-80
2023/12/05 06:32:51;;;;;;;;;;;0.80;99.90;;;;;;5100079;28;19924;-82
2023/12/05 06:35:17;;;;;;;;;;;0.80;99.90;;;;;;5092695;28;19924;-81
2023/12/05 06:37:42;;;;;;;;;;;0.90;99.90;;;;;;5099062;28;19923;-81
2023/12/05 06:40:08;;;;;;;;;;;0.80;99.90;;;;;;5101713;28;20016;-81
2023/12/05 06:42:34;;;;;;;;;;;0.80;99.90;;;;;;5095250;28;20413;-80
2023/12/05 06:45:00;;;;;;;;;;;0.80;99.90;;;;;;5092422;28;19974;-81
2023/12/05 06:47:25;;;;;;;;;;;0.80;99.90;;;;;;5109205;28;20380;-81
2023/12/05 06:49:51;;;;;;;;;;;0.80;99.90;;;;;;5111580;28;19932;-81
2023/12/05 06:52:17;;;;;;;;;;;0.80;99.90;;;;;;5112354;28;19924;-80
2023/12/05 06:54:42;;;;;;;;;;;0.80;99.90;;;;;;5109709;28;19928;-83
2023/12/05 06:57:08;;;;;;;;;;;0.80;99.90;;;;;;5112463;28;20063;-84
2023/12/05 06:59:34;;;;;;;;;;;0.80;99.90;;;;;;5132531;27;19928;-82
2023/12/05 07:02:00;;;;;;;;;;;0.90;99.90;;;;;;5113491;28;19930;-81
2023/12/05 07:04:25;;;;;;;;;;;0.80;99.90;;;;;;5108727;28;19923;-81
2023/12/05 07:06:51;;;;;;;;;;;0.80;99.90;;;;;;5110251;28;20376;-84
2023/12/05 07:09:17;;;;;;;;;;;0.70;99.90;;;;;;5115397;28;19998;-81
2023/12/05 07:11:43;;;;;;;;;;;0.70;99.90;;;;;;5111416;28;19928;-82
2023/12/05 07:14:08;;;;;;;;;;;0.80;99.90;;;;;;5109258;28;19927;-82
2023/12/05 07:16:36;;;;;;;;;;;0.70;99.90;;;;;;5105728;28;19952;-81
2023/12/05 07:19:02;;;;;;;;;;;0.70;99.90;;;;;;5114999;28;20015;-80
2023/12/05 07:21:27;;;;;;;;;;;0.70;99.90;;;;;;5115239;27;20323;-80
2023/12/05 07:23:53;;;;;;;;;;;0.70;99.90;;;;;;5110424;28;19950;-81
2023/12/05 07:26:19;;;;;;;;;;;0.70;99.90;;;;;;5118016;27;20018;-85
2023/12/05 07:28:48;;;;;;;;;;;0.70;99.90;;;;;;5143656;27;19927;-79
2023/12/05 07:31:14;;;;;;;;;;;0.80;99.90;;;;;;5132799;27;19946;-80
2023/12/05 07:33:39;;;;;;;;;;;0.70;99.90;;;;;;5129018;27;19986;-81
2023/12/05 07:36:05;;;;;;;;;;;0.70;99.90;;;;;;5121322;27;19976;-83
2023/12/05 07:38:32;;;;;;;;;;;0.70;99.90;;;;;;5118668;27;19924;-80
2023/12/05 07:40:57;;;;;;;;;;;0.70;99.90;;;;;;5112992;27;19924;-81
2023/12/05 07:43:23;;;;;;;;;;;0.70;99.90;;;;;;5113941;28;19934;-80
2023/12/05 07:45:49;;;;;;;;;;;0.70;99.90;;;;;;5111477;28;19927;-81
2023/12/05 07:48:15;;;;;;;;;;;0.70;99.90;;;;;;5104991;28;19927;-81
2023/12/05 07:50:40;;;;;;;;;;;0.70;99.90;;;;;;5107401;28;20268;-81
2023/12/05 07:53:06;;;;;;;;;;;0.70;99.90;;;;;;5109929;27;19930;-81
2023/12/05 07:55:31;;;;;;;;;;;0.70;99.90;;;;;;5120652;27;20670;-85
2023/12/05 07:57:58;;;;;;;;;;;0.70;99.90;;;;;;5117607;27;19931;-82
2023/12/05 08:00:24;;;;;;;;;;;0.80;99.90;;;;;;5116520;27;19924;-81
2023/12/05 08:02:49;;;;;;;;;;;0.80;99.90;;;;;;5111690;28;19923;-81
2023/12/05 08:05:15;;;;;;;;;;;0.80;99.90;;;;;;5110233;28;19928;-81
2023/12/05 08:07:41;;;;;;;;;;;0.80;99.90;;;;;;5104435;28;19930;-81
2023/12/05 08:10:07;;;;;;;;;;;0.80;99.90;;;;;;5115686;28;19924;-81
2023/12/05 08:12:33;;;;;;;;;;;0.80;99.90;;;;;;5101324;28;19946;-83
2023/12/05 08:14:59;;;;;;;;;;;0.80;99.90;;;;;;5115769;28;19977;-81
2023/12/05 08:17:25;;;;;;;;;;;0.80;99.90;;;;;;5113698;28;19931;-81
2023/12/05 08:19:50;;;;;;;;;;;0.90;99.90;;;;;;5096603;28;19947;-80
2023/12/05 08:22:16;;;;;;;;;;;0.80;99.90;;;;;;5107078;28;19928;-80
2023/12/05 08:24:41;;;;;;;;;;;0.80;99.90;;;;;;5108785;28;19925;-81
2023/12/05 08:27:07;;;;;;;;;;;0.80;99.90;;;;;;5113648;27;20644;-85
2023/12/05 08:29:33;;;;;;;;;;;0.80;99.90;;;;;;5121164;27;19968;-80
2023/12/05 08:31:58;;;;;;;;;;;0.80;99.90;;;;;;5121121;27;20023;-81
2023/12/05 08:34:24;;;;;;;;;;;0.80;99.90;;;;;;5117576;27;19973;-81
2023/12/05 08:36:50;;;;;;;;;;;0.80;99.90;;;;;;5117359;27;19932;-87
2023/12/05 08:39:16;;;;;;;;;;;0.80;99.90;;;;;;5113267;27;20358;-82
2023/12/05 08:41:41;;;;;;;;;;;0.80;99.90;;;;;;5112809;27;19931;-80
2023/12/05 08:44:07;;;;;;;;;;;0.80;99.90;;;;;;5108216;27;19927;-85
2023/12/05 08:46:32;;;;;;;;;;;1.00;99.90;;;;;;5113536;27;19931;-81
2023/12/05 08:48:58;;;;;;;;;;;0.90;99.90;;;;;;5107214;27;19931;-82
2023/12/05 08:51:24;;;;;;;;;;;0.90;99.90;;;;;;5112074;27;19924;-81
2023/12/05 08:53:49;;;;;;;;;;;0.90;99.90;;;;;;5112050;27;19924;-81
2023/12/05 08:56:15;;;;;;;;;;;0.80;99.90;;;;;;5112265;27;19930;-81
2023/12/05 08:58:40;;;;;;;;;;;0.90;99.90;;;;;;5120303;27;19981;-87
2023/12/05 09:01:09;;;;;;;;;;;0.90;99.90;;;;;;5118447;27;19924;-84
2023/12/05 09:03:34;;;;;;;;;;;0.90;99.90;;;;;;5114291;27;19928;-80
2023/12/05 09:06:00;;;;;;;;;;;0.90;99.90;;;;;;5116351;27;19924;-81
2023/12/05 09:08:26;;;;;;;;;;;0.90;99.90;;;;;;5111337;27;19928;-81
2023/12/05 09:10:53;;;;;;;;;;;0.90;99.90;;;;;;5109025;27;20040;-80
2023/12/05 09:13:18;;;;;;;;;;;0.80;99.90;;;;;;5103983;27;19933;-80
2023/12/05 09:15:44;;;;;;;;;;;0.90;99.90;;;;;;5114520;27;19924;-81
2023/12/05 09:18:11;;;;;;;;;;;0.90;99.90;;;;;;5111908;27;20108;-81
2023/12/05 09:20:37;;;;;;;;;;;1.00;99.90;;;;;;5113421;27;20417;-81
2023/12/05 09:23:03;;;;;;;;;;;1.00;99.90;;;;;;5115212;27;19974;-80
2023/12/05 09:25:28;;;;;;;;;;;0.90;99.90;;;;;;5104156;27;19927;-81
2023/12/05 09:27:54;;;;;;;;;;;1.00;99.90;;;;;;5105276;27;20310;-84
2023/12/05 09:30:19;;;;;;;;;;;1.00;99.90;;;;;;5112703;27;20382;-84
2023/12/05 09:32:45;;;;;;;;;;;1.00;99.90;;;;;;5113556;27;19927;-81
2023/12/05 09:35:11;;;;;;;;;;;1.00;99.90;;;;;;5108776;27;19971;-79
2023/12/05 09:37:36;;;;;;;;;;;1.00;99.90;;;;;;5110109;27;20226;-87
2023/12/05 09:40:03;;;;;;;;;;;1.00;99.90;;;;;;5138668;27;19931;-81
2023/12/05 09:42:28;;;;;;;;;;;1.00;99.90;;;;;;5098628;27;20014;-81
2023/12/05 09:44:55;;;;;;;;;;;1.00;99.90;;;;;;5118188;27;20054;-83
2023/12/05 09:47:21;;;;;;;;;;;0.90;99.90;;;;;;5114127;27;19939;-84
2023/12/05 09:49:47;;;;;;;;;;;0.90;99.90;;;;;;5110509;27;20476;-83
2023/12/05 09:52:29;;;;;;;;;;;;;;;;;;;;;
2023/12/05 09:54:57;;;;;;;;;;;1.00;99.90;;;;;;5110908;28;19927;-81
2023/12/05 09:57:23;;;;;;;;;;;1.00;99.90;;;;;;5108423;27;19924;-88
2023/12/05 09:59:48;;;;;;;;;;;1.00;99.90;;;;;;5098697;27;19938;-81
2023/12/05 10:02:15;;;;;;;;;;;1.00;99.90;;;;;;5112450;27;20292;-84
2023/12/05 10:04:44;;;;;;;;;;;1.00;99.90;;;;;;5120445;27;19961;-82
2023/12/05 10:07:11;;;;;;;;;;;1.00;99.90;;;;;;5113682;27;19932;-87
2023/12/05 10:09:40;;;;;;;;;;;1.00;99.90;;;;;;5108169;27;20394;-82
2023/12/05 10:12:07;;;;;;;;;;;1.00;99.90;;;;;;5142536;27;20341;-87
2023/12/05 10:14:33;;;;;;;;;;;1.00;99.90;;;;;;5111394;27;20014;-84
2023/12/05 10:16:59;;;;;;;;;;;1.00;99.90;;;;;;5113233;28;20081;-80
2023/12/05 10:19:25;;;;;;;;;;;1.00;99.90;;;;;;5111985;28;19924;-79
2023/12/05 10:21:50;;;;;;;;;;;1.00;99.90;;;;;;5114365;27;19931;-82
2023/12/05 10:24:16;;;;;;;;;;;1.00;99.90;;;;;;5110483;28;19932;-81
2023/12/05 10:26:43;;;;;;;;;;;1.00;99.90;;;;;;5113169;28;19950;-81
2023/12/05 10:29:09;;;;;;;;;;;1.00;99.90;;;;;;5105715;28;19932;-81
2023/12/05 10:31:34;;;;;;;;;;;1.00;99.90;;;;;;5109178;27;19970;-82
2023/12/05 10:34:05;;;;;;;;;;;1.00;99.90;;;;;;5104793;28;19928;-82
2023/12/05 10:36:30;;;;;;;;;;;1.00;99.90;;;;;;5104841;28;19963;-80
2023/12/05 10:38:56;;;;;;;;;;;1.00;99.90;;;;;;5107256;28;19966;-81
2023/12/05 10:41:22;;;;;;;;;;;1.00;99.90;;;;;;5115377;28;19931;-82
2023/12/05 10:43:57;;;;;;;;;;;1.00;99.90;;;;;;5109428;28;19989;-81
2023/12/05 10:46:26;;;;;;;;;;;1.00;99.90;;;;;;5105145;28;19938;-80
2023/12/05 10:48:51;;;;;;;;;;;1.00;99.90;;;;;;5109779;28;19924;-81
2023/12/05 10:51:17;;;;;;;;;;;1.00;99.90;;;;;;5105620;28;19938;-82
2023/12/05 10:53:43;;;;;;;;;;;1.10;99.90;;;;;;5106465;28;19924;-82
2023/12/05 10:56:15;;;;;;;;;;;1.10;99.90;;;;;;5124741;27;19938;-82
2023/12/05 10:58:42;;;;;;;;;;;1.00;99.90;;;;;;5124977;27;19945;-82
2023/12/05 11:01:11;;;;;;;;;;;1.00;99.90;;;;;;5118201;28;20374;-82
2023/12/05 11:03:40;;;;;;;;;;;1.00;99.90;;;;;;5119095;27;19927;-79
2023/12/05 11:06:07;;;;;;;;;;;1.00;99.90;;;;;;5118763;27;19927;-83
2023/12/05 11:08:33;;;;;;;;;;;1.00;99.90;;;;;;5112904;27;19927;-81
2023/12/05 11:11:00;;;;;;;;;;;1.00;99.90;;;;;;5113231;27;20126;-82
2023/12/05 11:13:26;;;;;;;;;;;1.00;99.90;;;;;;5112844;27;19924;-81
2023/12/05 11:15:52;;;;;;;;;;;1.10;99.90;;;;;;5114676;27;19972;-82
2023/12/05 11:18:25;;;;;;;;;;;1.10;99.90;;;;;;5111979;27;19924;-82
2023/12/05 11:21:00;;;;;;;;;;;1.10;99.90;;;;;;5114366;27;20355;-80
2023/12/05 11:23:54;;;;;;;;;;;1.20;99.90;;;;;;5110404;28;19924;-82
2023/12/05 11:26:20;;;;;;;;;;;1.20;99.90;;;;;;5055799;27;19925;-82
2023/12/05 11:29:03;;;;;;;;;;;1.20;99.90;;;;;;5114058;27;19934;-82
2023/12/05 11:31:47;;;;;;;;;;;1.20;99.90;;;;;;5114453;28;20478;-82
2023/12/05 11:34:31;;;;;;;;;;;1.20;99.90;;;;;;5116385;28;20271;-82
2023/12/05 11:37:00;;;;;;;;;;;1.20;99.90;;;;;;5115958;27;19927;-82
2023/12/05 11:39:26;;;;;;;;;;;1.10;99.90;;;;;;5115683;28;19928;-81
2023/12/05 11:42:11;;;;;;;;;;;1.10;99.90;;;;;;5115867;28;19923;-82
2023/12/05 11:44:37;;;;;;;;;;;1.20;99.90;;;;;;5107752;27;19927;-82
2023/12/05 11:47:04;;;;;;;;;;;1.20;99.90;;;;;;5117607;27;19929;-81
2023/12/05 11:49:47;;;;;;;;;;;1.20;99.90;;;;;;5118910;27;20373;-83
2023/12/05 11:52:13;;;;;;;;;;;1.20;99.90;;;;;;5117759;27;19924;-82
2023/12/05 11:54:39;;;;;;;;;;;1.20;99.90;;;;;;5122624;27;19932;-83
2023/12/05 11:57:17;;;;;;;;;;;1.20;99.90;;;;;;5123435;27;19923;-83
2023/12/05 11:59:47;;;;;;;;;;;1.10;99.90;;;;;;5116637;27;19932;-83
2023/12/05 12:02:13;;;;;;;;;;;1.10;99.90;;;;;;5115390;27;19969;-81
2023/12/05 12:04:39;;;;;;;;;;;1.20;99.90;;;;;;5115330;27;20022;-82
2023/12/05 12:07:05;;;;;;;;;;;1.20;99.90;;;;;;5113404;28;20315;-83
2023/12/05 12:09:38;;;;;;;;;;;1.20;99.90;;;;;;5114938;28;19923;-82
2023/12/05 12:12:04;;;;;;;;;;;1.20;99.90;;;;;;5097470;28;19924;-83
2023/12/05 12:14:30;;;;;;;;;;;1.20;99.90;;;;;;5115090;28;19927;-82
2023/12/05 12:16:56;;;;;;;;;;;1.10;99.90;;;;;;5114220;28;20417;-82
2023/12/05 12:19:22;;;;;;;;;;;1.20;99.90;;;;;;5115258;28;19924;-82
2023/12/05 12:21:48;;;;;;;;;;;1.20;99.90;;;;;;5114764;28;19931;-82
2023/12/05 12:24:18;;;;;;;;;;;1.20;99.90;;;;;;5114538;27;19940;-82
2023/12/05 12:26:57;;;;;;;;;;;1.10;99.90;;;;;;5115107;28;19972;-82
2023/12/05 12:29:23;;;;;;;;;;;1.10;99.90;;;;;;5115186;28;19924;-83
2023/12/05 12:31:50;;;;;;;;;;;1.20;99.90;;;;;;5114479;28;20010;-82
2023/12/05 12:34:22;;;;;;;;;;;1.20;99.90;;;;;;5113829;28;19924;-82
2023/12/05 12:36:48;;;;;;;;;;;1.20;99.90;;;;;;5114878;28;19923;-82
2023/12/05 12:39:18;;;;;;;;;;;1.20;99.90;;;;;;5114830;28;20010;-82
2023/12/05 12:41:47;;;;;;;;;;;1.20;99.90;;;;;;5119010;27;20013;-83
2023/12/05 12:44:13;;;;;;;;;;;1.20;99.90;;;;;;5126857;27;19932;-82
2023/12/05 12:46:42;;;;;;;;;;;1.20;99.90;;;;;;5114853;28;19928;-82
2023/12/05 12:49:08;;;;;;;;;;;1.20;99.90;;;;;;5114588;28;19947;-81
2023/12/05 12:51:34;;;;;;;;;;;1.30;99.90;;;;;;5115903;27;19923;-81
2023/12/05 12:54:03;;;;;;;;;;;1.30;99.90;;;;;;5114190;28;19935;-83
2023/12/05 12:56:29;;;;;;;;;;;1.30;99.90;;;;;;5120213;27;19924;-82
2023/12/05 12:58:57;;;;;;;;;;;1.40;99.90;;;;;;5117182;27;20264;-81
2023/12/05 13:01:23;;;;;;;;;;;1.40;99.90;;;;;;5121769;27;19933;-83
2023/12/05 13:03:48;;;;;;;;;;;1.40;99.90;;;;;;5115964;27;19931;-81
2023/12/05 13:06:15;;;;;;;;;;;1.40;99.90;;;;;;5115439;27;20385;-81
2023/12/05 13:08:41;;;;;;;;;;;1.40;99.90;;;;;;5114056;28;19969;-82
2023/12/05 13:11:07;;;;;;;;;;;1.30;99.90;;;;;;5114297;28;20343;-82
2023/12/05 13:13:33;;;;;;;;;;;1.20;99.90;;;;;;5113820;28;19967;-82
2023/12/05 13:16:00;;;;;;;;;;;1.20;99.90;;;;;;5113894;28;19932;-83
2023/12/05 13:18:39;;;;;;;;;;;1.20;99.90;;;;;;5108945;27;20382;-82
2023/12/05 13:21:05;;;;;;;;;;;1.20;99.90;;;;;;5105842;28;19924;-81
2023/12/05 13:23:30;;;;;;;;;;;1.20;99.90;;;;;;5113896;28;19924;-81
2023/12/05 13:25:56;;;;;;;;;;;1.20;99.90;;;;;;5145268;27;19927;-82
2023/12/05 13:28:23;;;;;;;;;;;1.20;99.90;;;;;;5111796;28;20018;-82
2023/12/05 13:30:48;;;;;;;;;;;1.10;99.90;;;;;;5113069;28;19927;-81
2023/12/05 13:33:15;;;;;;;;;;;1.10;99.90;;;;;;5112865;28;19931;-82
2023/12/05 13:35:41;;;;;;;;;;;1.10;99.90;;;;;;5112658;28;20030;-81
2023/12/05 13:38:10;;;;;;;;;;;1.20;99.90;;;;;;5113787;28;20023;-81
2023/12/05 13:40:36;;;;;;;;;;;1.10;99.90;;;;;;5112195;28;19923;-82
2023/12/05 13:43:01;;;;;;;;;;;1.00;99.90;;;;;;5113844;28;19923;-83
2023/12/05 13:45:27;;;;;;;;;;;1.00;99.90;;;;;;5112936;28;20529;-82
2023/12/05 13:47:52;;;;;;;;;;;1.10;99.90;;;;;;5113325;28;19928;-82
2023/12/05 13:50:19;;;;;;;;;;;1.00;99.90;;;;;;5111886;28;20398;-82
2023/12/05 13:52:45;;;;;;;;;;;1.00;99.90;;;;;;5113619;28;19957;-82
2023/12/05 13:55:11;;;;;;;;;;;0.90;99.90;;;;;;5112833;28;19924;-82
2023/12/05 13:57:36;;;;;;;;;;;1.00;99.90;;;;;;5113011;28;19931;-82
2023/12/05 14:00:02;;;;;;;;;;;1.00;99.90;;;;;;5113380;28;19924;-81
2023/12/05 14:02:28;;;;;;;;;;;1.00;99.90;;;;;;5113352;28;19996;-82
2023/12/05 14:04:54;;;;;;;;;;;1.10;99.90;;;;;;5113468;28;19971;-81
2023/12/05 14:07:20;;;;;;;;;;;1.00;99.90;;;;;;5113081;28;19989;-82
2023/12/05 14:09:46;;;;;;;;;;;1.00;99.90;;;;;;5112551;28;19924;-82
2023/12/05 14:12:11;;;;;;;;;;;1.00;99.90;;;;;;5112981;28;20278;-82
2023/12/05 14:14:39;;;;;;;;;;;1.00;99.90;;;;;;5107836;28;19963;-82
2023/12/05 14:17:04;;;;;;;;;;;1.00;99.90;;;;;;5134034;27;19934;-83
2023/12/05 14:19:31;;;;;;;;;;;1.00;99.90;;;;;;5114815;28;19924;-81
2023/12/05 14:21:57;;;;;;;;;;;0.90;99.90;;;;;;5108879;28;19931;-81
2023/12/05 14:24:22;;;;;;;;;;;1.00;99.90;;;;;;5113663;28;19924;-82
2023/12/05 14:26:48;;;;;;;;;;;1.00;99.90;;;;;;5115212;28;19976;-81